KDAL

Dallas Love Field Airport

Dallas, Texas, USA
METAR KDAL 161353Z 13004KT 10SM SCT250 BKN300 04/M02 A3014 RMK AO2 SLP206 T00391022
Observed Flight Rules
Dec-16 @ 13:53 UTC (an hour ago) Visual Flight Rules
Wind Visibility Clouds
130° at 4 knots 10 miles
  • Scattered at 25,000' AGL
  • Broken at 30,000' AGL
Temperatures Readings
Current 4°C / 39°F
Dewpoint -2°C / 28°F
Humidity 65%
Altimeter 30.14" Hg
Pressure 1020.6 hPa
Elevation 158
METAR KDAL 161353Z 13004KT 10SM SCT250 BKN300 04/M02 A3014 RMK AO2 SLP206 T00391022
Observed Flight Rules
Dec-16 @ 13:53 UTC
(an hour ago)
VFR
Wind Visibility
130° at 4 knots 10 miles
Clouds
  • Scattered at 25,000' AGL
  • Broken at 30,000' AGL
Temperature Dewpoint
4°C / 39°F -2°C / 28°F
Humidity Altimeter Pressure
65% 30.14" Hg 1020.6 hPa